Time;durP1;ratioP1;P1;durP2;ratioP2;P2;SDS_P1;SDS_P2;PMS_P1;PMS_P2;Temp;Humidity;BMP_temperature;BMP_pressure;BME280_temperature;BME280_humidity;BME280_pressure;Samples;Min_cycle;Max_cycle;Signal;HPM_P1;HPM_P2
2022/01/25 00:26:21;;;;;;;0.60;0.60;;;;;;;;;;5070731;28;20196;-72
2022/01/25 00:29:10;;;;;;;0.68;0.60;;;;;;;;;;5075229;28;20458;-72
2022/01/25 00:31:41;;;;;;;0.70;0.70;;;;;;;;;;5076273;28;20214;-73
2022/01/25 00:34:09;;;;;;;0.60;0.60;;;;;;;;;;5075823;28;20166;-73
2022/01/25 00:36:36;;;;;;;0.60;0.60;;;;;;;;;;5074439;28;20220;-73
2022/01/25 00:39:04;;;;;;;0.60;0.60;;;;;;;;;;5058708;28;20727;-74
2022/01/25 00:41:32;;;;;;;0.60;0.60;;;;;;;;;;5067302;28;20531;-74
2022/01/25 00:44:01;;;;;;;0.60;0.60;;;;;;;;;;5051464;28;20296;-73
2022/01/25 00:46:29;;;;;;;1.08;0.98;;;;;;;;;;5039674;28;20435;-73
2022/01/25 00:49:03;;;;;;;0.63;0.60;;;;;;;;;;5039186;28;20622;-73
2022/01/25 00:54:06;;;;;;;0.60;0.60;;;;;;;;;;5056224;28;20217;-73
2022/01/25 00:56:34;;;;;;;0.60;0.60;;;;;;;;;;5052150;28;20204;-73
2022/01/25 00:59:04;;;;;;;0.60;0.60;;;;;;;;;;5075403;28;20190;-73
2022/01/25 01:01:33;;;;;;;0.70;0.70;;;;;;;;;;5076066;28;20185;-73
2022/01/25 01:04:02;;;;;;;0.60;0.60;;;;;;;;;;5074139;28;20675;-73
2022/01/25 01:06:29;;;;;;;0.70;0.60;;;;;;;;;;5074663;28;20292;-73
2022/01/25 01:09:00;;;;;;;0.60;0.60;;;;;;;;;;5059459;28;20862;-73
2022/01/25 01:11:55;;;;;;;0.60;0.60;;;;;;;;;;5074139;28;20736;-73
2022/01/25 01:15:05;;;;;;;0.60;0.60;;;;;;;;;;5075704;28;20189;-73
2022/01/25 01:17:34;;;;;;;0.60;0.60;;;;;;;;;;5074696;28;20254;-73
2022/01/25 01:31:29;;;;;;;0.60;0.50;;;;;;;;;;5073708;28;20211;-73
2022/01/25 01:37:16;;;;;;;0.60;0.60;;;;;;;;;;5071357;28;20542;-74
2022/01/25 01:39:49;;;;;;;0.60;0.60;;;;;;;;;;5054526;28;21036;-73
2022/01/25 01:42:35;;;;;;;0.60;0.60;;;;;;;;;;5053981;28;20209;-73
2022/01/25 01:45:26;;;;;;;0.60;0.60;;;;;;;;;;5054399;28;20194;-73
2022/01/25 01:48:04;;;;;;;0.60;0.60;;;;;;;;;;5054580;28;20263;-73
2022/01/25 01:50:58;;;;;;;0.60;0.60;;;;;;;;;;5055187;28;20217;-73
2022/01/25 01:53:39;;;;;;;0.60;0.57;;;;;;;;;;5053917;28;20284;-73
2022/01/25 01:56:11;;;;;;;0.60;0.60;;;;;;;;;;5062043;28;20232;-72
2022/01/25 01:58:44;;;;;;;1.45;1.35;;;;;;;;;;5055322;28;20178;-73
2022/01/25 02:01:16;;;;;;;0.70;0.68;;;;;;;;;;5071451;28;20595;-72
2022/01/25 02:03:50;;;;;;;0.60;0.60;;;;;;;;;;5074342;28;20184;-73
2022/01/25 02:06:23;;;;;;;0.60;0.60;;;;;;;;;;5074005;28;20522;-73
2022/01/25 02:08:54;;;;;;;0.60;0.60;;;;;;;;;;5073289;28;20499;-73
2022/01/25 02:11:25;;;;;;;0.70;0.60;;;;;;;;;;5053881;28;20707;-73
2022/01/25 02:13:58;;;;;;;0.60;0.60;;;;;;;;;;5055829;28;20722;-73
2022/01/25 02:24:46;;;;;;;0.60;0.50;;;;;;;;;;5071640;28;20182;-73
2022/01/25 02:27:22;;;;;;;0.63;0.63;;;;;;;;;;5053034;28;20725;-74
2022/01/25 02:29:53;;;;;;;0.60;0.60;;;;;;;;;;5057353;28;20202;-73
2022/01/25 02:32:22;;;;;;;0.60;0.60;;;;;;;;;;5072821;28;20193;-73
2022/01/25 02:34:57;;;;;;;0.60;0.50;;;;;;;;;;5072170;28;20447;-73
2022/01/25 02:37:28;;;;;;;0.60;0.60;;;;;;;;;;5046783;28;20213;-73
2022/01/25 02:40:01;;;;;;;0.60;0.60;;;;;;;;;;5065005;28;20185;-73
2022/01/25 02:42:31;;;;;;;0.60;0.60;;;;;;;;;;5056272;28;20306;-73
2022/01/25 02:45:10;;;;;;;0.60;0.60;;;;;;;;;;5056949;28;20672;-73
2022/01/25 02:50:37;;;;;;;0.60;0.60;;;;;;;;;;5072093;28;20212;-73
2022/01/25 02:53:11;;;;;;;0.60;0.50;;;;;;;;;;5072525;28;20212;-73
2022/01/25 02:55:52;;;;;;;0.60;0.60;;;;;;;;;;5072625;28;20599;-72
2022/01/25 02:58:25;;;;;;;0.60;0.60;;;;;;;;;;5059347;28;20186;-73
2022/01/25 03:00:57;;;;;;;0.60;0.60;;;;;;;;;;5059487;28;20248;-72
2022/01/25 03:03:31;;;;;;;0.60;0.60;;;;;;;;;;5071809;28;20165;-72
2022/01/25 03:06:05;;;;;;;0.93;0.93;;;;;;;;;;5052980;28;20209;-73
2022/01/25 03:08:37;;;;;;;0.60;0.60;;;;;;;;;;5065097;28;20254;-73
2022/01/25 03:11:09;;;;;;;0.70;0.60;;;;;;;;;;5079104;28;20223;-73
2022/01/25 03:13:54;;;;;;;0.70;0.70;;;;;;;;;;5074496;28;20573;-73
2022/01/25 03:16:34;;;;;;;0.60;0.60;;;;;;;;;;5059036;28;20189;-73
2022/01/25 03:19:28;;;;;;;0.60;0.60;;;;;;;;;;5072901;28;20268;-73
2022/01/25 03:21:56;;;;;;;0.70;0.70;;;;;;;;;;5072499;28;20229;-73
2022/01/25 03:24:44;;;;;;;0.60;0.60;;;;;;;;;;5069902;28;20539;-74
2022/01/25 03:27:13;;;;;;;0.60;0.60;;;;;;;;;;5053872;28;20178;-73
2022/01/25 03:29:41;;;;;;;0.60;0.60;;;;;;;;;;5053832;28;20277;-74
2022/01/25 03:32:09;;;;;;;0.70;0.60;;;;;;;;;;5051170;28;20229;-73
2022/01/25 03:34:39;;;;;;;0.60;0.60;;;;;;;;;;5053593;28;20665;-73
2022/01/25 03:37:06;;;;;;;0.60;0.60;;;;;;;;;;5035381;28;20213;-73
2022/01/25 03:39:34;;;;;;;0.60;0.60;;;;;;;;;;5052379;28;20231;-72
2022/01/25 03:42:07;;;;;;;0.60;0.60;;;;;;;;;;5056958;28;20180;-73
2022/01/25 03:44:36;;;;;;;0.63;0.63;;;;;;;;;;5036196;28;20196;-72
2022/01/25 03:47:30;;;;;;;0.60;0.60;;;;;;;;;;5052658;28;20173;-73
2022/01/25 03:49:57;;;;;;;0.70;0.70;;;;;;;;;;5053176;28;20192;-73
2022/01/25 03:52:34;;;;;;;0.70;0.60;;;;;;;;;;5052507;28;20209;-73
2022/01/25 03:55:01;;;;;;;0.60;0.60;;;;;;;;;;5064440;28;20184;-72
2022/01/25 03:57:30;;;;;;;0.70;0.70;;;;;;;;;;5072260;28;20181;-73
2022/01/25 04:00:00;;;;;;;0.70;0.60;;;;;;;;;;5072602;28;20190;-72
2022/01/25 04:02:56;;;;;;;0.60;0.60;;;;;;;;;;5049491;28;20201;-72
2022/01/25 04:05:35;;;;;;;0.60;0.50;;;;;;;;;;5084171;28;20664;-73
2022/01/25 04:08:04;;;;;;;0.60;0.60;;;;;;;;;;5078480;28;20239;-73
2022/01/25 04:10:33;;;;;;;1.88;1.48;;;;;;;;;;5073596;28;20205;-73
2022/01/25 04:13:04;;;;;;;0.60;0.60;;;;;;;;;;5041951;28;20283;-72
2022/01/25 04:15:32;;;;;;;0.60;0.60;;;;;;;;;;5057966;28;20201;-73
2022/01/25 04:18:51;;;;;;;0.60;0.60;;;;;;;;;;5074674;28;20291;-72
2022/01/25 04:21:25;;;;;;;0.60;0.60;;;;;;;;;;5066309;28;20447;-72
2022/01/25 04:26:28;;;;;;;0.60;0.60;;;;;;;;;;5055564;28;20650;-72
2022/01/25 04:28:57;;;;;;;0.60;0.60;;;;;;;;;;5054510;28;20736;-73
2022/01/25 04:31:25;;;;;;;1.80;1.70;;;;;;;;;;5059943;28;20217;-72
2022/01/25 04:34:10;;;;;;;0.60;0.60;;;;;;;;;;5059014;28;20945;-72
2022/01/25 04:48:47;;;;;;;0.60;0.60;;;;;;;;;;5043612;28;20225;-72
2022/01/25 04:53:39;;;;;;;0.60;0.60;;;;;;;;;;5076316;28;20205;-72
2022/01/25 04:56:20;;;;;;;0.70;0.60;;;;;;;;;;5067483;28;20181;-73
2022/01/25 04:59:17;;;;;;;0.60;0.60;;;;;;;;;;5074746;28;20198;-72
2022/01/25 05:01:38;;;;;;;0.60;0.60;;;;;;;;;;5075288;28;20176;-72
2022/01/25 05:04:12;;;;;;;0.63;0.60;;;;;;;;;;5090068;28;20192;-72
2022/01/25 05:06:42;;;;;;;0.60;0.60;;;;;;;;;;5073947;28;20228;-72
2022/01/25 05:09:13;;;;;;;0.60;0.60;;;;;;;;;;5074211;28;20601;-72
2022/01/25 05:11:45;;;;;;;0.60;0.60;;;;;;;;;;5074141;28;20219;-72
2022/01/25 05:14:25;;;;;;;0.60;0.60;;;;;;;;;;5074685;28;20200;-72
2022/01/25 05:16:58;;;;;;;0.60;0.60;;;;;;;;;;5058207;28;20188;-72
2022/01/25 05:24:37;;;;;;;0.63;0.60;;;;;;;;;;5056018;28;20415;-73
2022/01/25 05:27:06;;;;;;;0.60;0.60;;;;;;;;;;5073415;28;20491;-72
2022/01/25 05:29:34;;;;;;;0.60;0.60;;;;;;;;;;5074662;28;20951;-72
2022/01/25 05:32:05;;;;;;;0.60;0.60;;;;;;;;;;5075143;28;20232;-73
2022/01/25 05:34:34;;;;;;;0.60;0.60;;;;;;;;;;5075877;28;20222;-73
2022/01/25 05:37:03;;;;;;;0.60;0.60;;;;;;;;;;5076293;28;20204;-73
2022/01/25 05:39:33;;;;;;;0.60;0.60;;;;;;;;;;5074397;28;20201;-73
2022/01/25 05:42:17;;;;;;;0.60;0.60;;;;;;;;;;5058022;28;20286;-73
2022/01/25 05:47:19;;;;;;;1.55;1.45;;;;;;;;;;5073990;28;20177;-72
2022/01/25 05:49:48;;;;;;;0.60;0.60;;;;;;;;;;5054315;28;20225;-72
2022/01/25 05:52:16;;;;;;;0.70;0.70;;;;;;;;;;5054018;28;20221;-74
2022/01/25 05:54:44;;;;;;;0.60;0.60;;;;;;;;;;5054675;28;20201;-75
2022/01/25 05:57:12;;;;;;;0.70;0.60;;;;;;;;;;5072538;28;20676;-74
2022/01/25 05:59:40;;;;;;;0.60;0.57;;;;;;;;;;5074242;28;20190;-74
2022/01/25 06:02:10;;;;;;;0.60;0.60;;;;;;;;;;5074023;28;20809;-73
2022/01/25 06:04:40;;;;;;;0.60;0.60;;;;;;;;;;5074243;28;20193;-74
2022/01/25 06:07:08;;;;;;;0.60;0.60;;;;;;;;;;5074019;28;20212;-73
2022/01/25 06:09:41;;;;;;;0.60;0.60;;;;;;;;;;5073153;28;20220;-73
2022/01/25 06:12:11;;;;;;;0.60;0.60;;;;;;;;;;5056677;28;20239;-72
2022/01/25 06:14:38;;;;;;;0.60;0.60;;;;;;;;;;5073995;28;20270;-72
2022/01/25 06:17:05;;;;;;;0.60;0.60;;;;;;;;;;5073628;28;20189;-73
2022/01/25 06:19:32;;;;;;;0.70;0.60;;;;;;;;;;5073472;28;20201;-73
2022/01/25 06:22:01;;;;;;;0.60;0.60;;;;;;;;;;5062506;28;20215;-73
2022/01/25 06:24:30;;;;;;;0.60;0.60;;;;;;;;;;5052428;28;20408;-72
2022/01/25 06:26:57;;;;;;;0.60;0.60;;;;;;;;;;5043072;28;20441;-73
2022/01/25 06:29:27;;;;;;;0.60;0.57;;;;;;;;;;5060701;28;20186;-73
2022/01/25 06:31:56;;;;;;;0.70;0.60;;;;;;;;;;5074187;28;20196;-73
2022/01/25 06:34:23;;;;;;;0.60;0.60;;;;;;;;;;5038956;28;20201;-73
2022/01/25 06:36:51;;;;;;;0.60;0.60;;;;;;;;;;5093845;28;20921;-73
2022/01/25 06:39:19;;;;;;;0.82;0.82;;;;;;;;;;5076677;28;20283;-73
2022/01/25 06:41:48;;;;;;;0.60;0.60;;;;;;;;;;5095392;28;20180;-72
2022/01/25 06:44:16;;;;;;;0.60;0.60;;;;;;;;;;5059225;28;20219;-72
2022/01/25 06:46:46;;;;;;;0.60;0.60;;;;;;;;;;5057163;28;20192;-73
2022/01/25 06:49:13;;;;;;;0.60;0.60;;;;;;;;;;5073184;28;20195;-73
2022/01/25 06:51:42;;;;;;;0.70;0.70;;;;;;;;;;5072899;28;20553;-73
2022/01/25 06:54:10;;;;;;;0.60;0.60;;;;;;;;;;5055277;28;20238;-73
2022/01/25 06:56:39;;;;;;;0.60;0.60;;;;;;;;;;5073092;28;20212;-73
2022/01/25 06:59:07;;;;;;;0.60;0.60;;;;;;;;;;5072974;28;20173;-74
2022/01/25 07:01:34;;;;;;;0.60;0.60;;;;;;;;;;5072934;28;20184;-74
2022/01/25 07:04:01;;;;;;;0.60;0.60;;;;;;;;;;5056633;28;20216;-75
2022/01/25 07:06:29;;;;;;;0.60;0.60;;;;;;;;;;5072112;28;20208;-73
2022/01/25 07:08:58;;;;;;;0.60;0.60;;;;;;;;;;5072648;28;20229;-74
2022/01/25 07:11:25;;;;;;;0.60;0.60;;;;;;;;;;5072418;28;20685;-74
2022/01/25 07:13:55;;;;;;;0.60;0.60;;;;;;;;;;5072219;28;20201;-72
2022/01/25 07:16:22;;;;;;;0.60;0.60;;;;;;;;;;5073132;28;20216;-72
2022/01/25 07:18:55;;;;;;;0.60;0.60;;;;;;;;;;5072994;28;20193;-73
2022/01/25 07:21:22;;;;;;;0.60;0.60;;;;;;;;;;5055336;28;20477;-73
2022/01/25 07:23:51;;;;;;;0.60;0.60;;;;;;;;;;5072596;28;20279;-73
2022/01/25 07:26:19;;;;;;;0.70;0.60;;;;;;;;;;5072586;28;20226;-73
2022/01/25 07:28:48;;;;;;;0.60;0.60;;;;;;;;;;5069056;28;20535;-73
2022/01/25 07:31:16;;;;;;;0.77;0.77;;;;;;;;;;5035671;28;20305;-74
2022/01/25 07:33:46;;;;;;;0.60;0.60;;;;;;;;;;5052853;28;20257;-73
2022/01/25 07:36:20;;;;;;;0.60;0.60;;;;;;;;;;5066412;28;20206;-73
2022/01/25 07:38:50;;;;;;;0.60;0.60;;;;;;;;;;5073652;28;20647;-74
2022/01/25 07:41:30;;;;;;;0.60;0.60;;;;;;;;;;5072692;28;20188;-72
2022/01/25 07:44:01;;;;;;;0.60;0.60;;;;;;;;;;5072402;28;20298;-74
2022/01/25 07:46:38;;;;;;;0.70;0.70;;;;;;;;;;5071589;28;20187;-74
2022/01/25 07:49:16;;;;;;;0.70;0.70;;;;;;;;;;5072246;28;20202;-73
2022/01/25 07:51:43;;;;;;;0.70;0.70;;;;;;;;;;5073202;28;20214;-73
2022/01/25 07:54:11;;;;;;;0.60;0.60;;;;;;;;;;5052195;28;20657;-73
2022/01/25 07:56:38;;;;;;;0.60;0.60;;;;;;;;;;5072061;28;20195;-73
2022/01/25 07:59:05;;;;;;;0.60;0.60;;;;;;;;;;5072496;28;20203;-72
2022/01/25 08:01:33;;;;;;;0.70;0.60;;;;;;;;;;5072636;28;20641;-72
2022/01/25 08:04:03;;;;;;;0.70;0.70;;;;;;;;;;5072653;28;20188;-72
2022/01/25 08:06:55;;;;;;;0.60;0.60;;;;;;;;;;5073141;28;20562;-72
2022/01/25 08:09:30;;;;;;;0.60;0.50;;;;;;;;;;5071701;28;20255;-72
2022/01/25 08:12:18;;;;;;;0.60;0.60;;;;;;;;;;5072129;28;20205;-72
2022/01/25 08:15:06;;;;;;;0.60;0.50;;;;;;;;;;5062129;28;20533;-72
2022/01/25 08:17:36;;;;;;;0.60;0.60;;;;;;;;;;5072323;28;20268;-72
2022/01/25 08:20:11;;;;;;;0.70;0.70;;;;;;;;;;5071941;28;20197;-72
2022/01/25 08:22:53;;;;;;;0.60;0.60;;;;;;;;;;5033929;28;20233;-73
2022/01/25 08:25:47;;;;;;;0.70;0.60;;;;;;;;;;5049166;28;20201;-72
2022/01/25 08:28:30;;;;;;;1.33;1.23;;;;;;;;;;5018452;28;20440;-72
2022/01/25 08:31:20;;;;;;;0.60;0.60;;;;;;;;;;5051979;28;20547;-72
2022/01/25 08:34:04;;;;;;;0.60;0.60;;;;;;;;;;5050767;28;20574;-72
2022/01/25 08:36:49;;;;;;;0.60;0.60;;;;;;;;;;5012524;28;20328;-72
2022/01/25 08:39:26;;;;;;;0.65;0.65;;;;;;;;;;4999326;28;20739;-72
2022/01/25 08:42:08;;;;;;;0.60;0.60;;;;;;;;;;5013914;28;20202;-72
2022/01/25 08:44:36;;;;;;;0.60;0.60;;;;;;;;;;4998361;28;20198;-72
2022/01/25 08:47:36;;;;;;;0.60;0.60;;;;;;;;;;4999969;28;20821;-72
2022/01/25 08:50:14;;;;;;;1.10;1.00;;;;;;;;;;5017689;28;20527;-72
2022/01/25 08:52:58;;;;;;;0.73;0.73;;;;;;;;;;4997742;28;20809;-72
2022/01/25 08:55:43;;;;;;;0.60;0.60;;;;;;;;;;4998344;28;20833;-72
2022/01/25 08:58:20;;;;;;;0.60;0.50;;;;;;;;;;4998564;28;20437;-73
2022/01/25 09:00:51;;;;;;;0.60;0.60;;;;;;;;;;4998606;28;20449;-73
2022/01/25 09:03:20;;;;;;;0.70;0.70;;;;;;;;;;4981726;28;20430;-73
2022/01/25 09:05:50;;;;;;;0.60;0.60;;;;;;;;;;4998188;28;20201;-73
2022/01/25 09:08:21;;;;;;;0.60;0.60;;;;;;;;;;4998604;28;20460;-73
2022/01/25 09:11:01;;;;;;;0.60;0.60;;;;;;;;;;4998980;28;20428;-73
2022/01/25 09:13:29;;;;;;;0.60;0.60;;;;;;;;;;4995243;28;20815;-72
2022/01/25 09:15:57;;;;;;;0.60;0.60;;;;;;;;;;5038820;28;20188;-72
2022/01/25 09:18:25;;;;;;;0.60;0.60;;;;;;;;;;5054487;28;20647;-72
2022/01/25 09:20:53;;;;;;;0.70;0.68;;;;;;;;;;5056322;28;20200;-73
2022/01/25 09:23:23;;;;;;;0.70;0.70;;;;;;;;;;5038563;28;20210;-73
2022/01/25 09:25:52;;;;;;;0.60;0.60;;;;;;;;;;5057360;28;20960;-73
2022/01/25 09:28:21;;;;;;;0.70;0.70;;;;;;;;;;5055333;28;20193;-72
2022/01/25 09:30:50;;;;;;;1.33;1.23;;;;;;;;;;5055546;28;20435;-72
2022/01/25 09:33:21;;;;;;;0.70;0.70;;;;;;;;;;5054619;28;20463;-73
2022/01/25 09:35:54;;;;;;;0.60;0.60;;;;;;;;;;5057326;28;20447;-72
2022/01/25 09:38:23;;;;;;;0.60;0.60;;;;;;;;;;5054462;28;20828;-73
2022/01/25 09:40:50;;;;;;;0.60;0.60;;;;;;;;;;5054373;28;20448;-72
2022/01/25 09:43:20;;;;;;;0.60;0.60;;;;;;;;;;5054017;28;20420;-73
2022/01/25 09:45:52;;;;;;;0.60;0.60;;;;;;;;;;5054091;28;20462;-72
2022/01/25 09:48:19;;;;;;;0.70;0.63;;;;;;;;;;5054106;28;20837;-71
2022/01/25 09:51:13;;;;;;;0.60;0.60;;;;;;;;;;5054625;28;20436;-72
2022/01/25 09:53:42;;;;;;;0.60;0.60;;;;;;;;;;5056687;28;21613;-72
2022/01/25 09:56:09;;;;;;;0.60;0.50;;;;;;;;;;5061676;28;20530;-71
2022/01/25 09:58:36;;;;;;;0.77;0.77;;;;;;;;;;5074228;28;20404;-72
2022/01/25 10:01:05;;;;;;;0.60;0.60;;;;;;;;;;5056958;28;20948;-72
2022/01/25 10:03:37;;;;;;;0.60;0.60;;;;;;;;;;5037197;28;20813;-72
2022/01/25 10:06:11;;;;;;;0.60;0.60;;;;;;;;;;5054223;28;20448;-72
2022/01/25 10:08:38;;;;;;;0.70;0.60;;;;;;;;;;5037790;28;20467;-72
2022/01/25 10:11:08;;;;;;;0.60;0.60;;;;;;;;;;5057641;28;20442;-73
2022/01/25 10:13:37;;;;;;;1.30;1.20;;;;;;;;;;5073651;28;20490;-72
2022/01/25 10:16:08;;;;;;;0.70;0.70;;;;;;;;;;5055345;28;20474;-74
2022/01/25 10:18:38;;;;;;;0.60;0.60;;;;;;;;;;5048414;28;20193;-72
2022/01/25 10:21:09;;;;;;;0.60;0.60;;;;;;;;;;5070242;28;20938;-72
2022/01/25 10:23:37;;;;;;;0.60;0.60;;;;;;;;;;5073480;28;20613;-72
2022/01/25 10:26:06;;;;;;;0.60;0.60;;;;;;;;;;5073039;28;20554;-72
2022/01/25 10:28:33;;;;;;;0.60;0.60;;;;;;;;;;5057135;28;20446;-73
2022/01/25 10:31:03;;;;;;;0.70;0.70;;;;;;;;;;5069240;28;20435;-72
2022/01/25 10:33:39;;;;;;;0.60;0.60;;;;;;;;;;5073388;28;20541;-73
2022/01/25 10:36:26;;;;;;;0.60;0.60;;;;;;;;;;5059992;28;20447;-73
2022/01/25 10:38:54;;;;;;;0.70;0.60;;;;;;;;;;5043427;28;20435;-72
2022/01/25 10:41:25;;;;;;;1.20;1.10;;;;;;;;;;5061129;28;20530;-73
2022/01/25 10:43:55;;;;;;;0.67;0.60;;;;;;;;;;5073581;28;20418;-72
2022/01/25 10:46:26;;;;;;;0.60;0.60;;;;;;;;;;5072532;28;20435;-72
2022/01/25 10:48:57;;;;;;;0.60;0.60;;;;;;;;;;5056494;28;20458;-72
2022/01/25 10:51:26;;;;;;;0.60;0.60;;;;;;;;;;5073115;28;20427;-72
2022/01/25 10:53:59;;;;;;;0.60;0.60;;;;;;;;;;5072832;28;20489;-72
2022/01/25 10:56:34;;;;;;;0.60;0.60;;;;;;;;;;5044987;28;20450;-72
2022/01/25 10:59:02;;;;;;;0.80;0.80;;;;;;;;;;5076819;28;20446;-72
2022/01/25 11:01:31;;;;;;;0.60;0.60;;;;;;;;;;5076497;28;20437;-72
2022/01/25 11:04:05;;;;;;;0.60;0.60;;;;;;;;;;5076594;28;20423;-73
2022/01/25 11:06:33;;;;;;;0.60;0.60;;;;;;;;;;5073025;28;21124;-72
2022/01/25 11:09:05;;;;;;;0.70;0.70;;;;;;;;;;5071951;28;20432;-72
2022/01/25 11:11:38;;;;;;;0.60;0.60;;;;;;;;;;5072295;28;20860;-73
2022/01/25 11:16:57;;;;;;;0.60;0.50;;;;;;;;;;5072482;28;20807;-72
2022/01/25 11:19:25;;;;;;;0.60;0.60;;;;;;;;;;5072361;28;20446;-73
2022/01/25 11:21:54;;;;;;;0.60;0.60;;;;;;;;;;5072808;28;20443;-73
2022/01/25 11:24:24;;;;;;;0.60;0.60;;;;;;;;;;5073620;28;20510;-72
2022/01/25 11:26:53;;;;;;;0.60;0.60;;;;;;;;;;5072301;28;20485;-72
2022/01/25 11:29:20;;;;;;;0.60;0.60;;;;;;;;;;5069976;28;20447;-73
2022/01/25 11:31:54;;;;;;;0.60;0.60;;;;;;;;;;5053334;28;20474;-72
2022/01/25 11:34:23;;;;;;;0.60;0.50;;;;;;;;;;5052643;28;20529;-73
2022/01/25 11:36:52;;;;;;;0.60;0.50;;;;;;;;;;5052352;28;20444;-72
2022/01/25 11:39:21;;;;;;;0.67;0.60;;;;;;;;;;5052823;28;20436;-73
2022/01/25 11:41:49;;;;;;;0.60;0.50;;;;;;;;;;5051749;28;20546;-73
2022/01/25 11:44:21;;;;;;;0.80;0.80;;;;;;;;;;5051723;28;20482;-73
2022/01/25 11:46:54;;;;;;;0.60;0.57;;;;;;;;;;5052306;28;20443;-72
2022/01/25 11:49:22;;;;;;;0.60;0.60;;;;;;;;;;5052017;28;20450;-72
2022/01/25 11:52:04;;;;;;;0.60;0.60;;;;;;;;;;5052052;28;20518;-72
2022/01/25 11:54:32;;;;;;;0.60;0.60;;;;;;;;;;5052393;28;20870;-72
2022/01/25 11:57:08;;;;;;;0.60;0.60;;;;;;;;;;5063724;28;20947;-73
2022/01/25 11:59:41;;;;;;;0.67;0.60;;;;;;;;;;5057929;28;20761;-73
2022/01/25 12:02:09;;;;;;;0.60;0.60;;;;;;;;;;5052145;28;20420;-72
2022/01/25 12:04:42;;;;;;;0.70;0.70;;;;;;;;;;5054247;28;20416;-72
2022/01/25 12:07:23;;;;;;;0.80;0.80;;;;;;;;;;5055331;28;20664;-73
2022/01/25 12:10:03;;;;;;;0.70;0.60;;;;;;;;;;5051742;28;20440;-72
2022/01/25 12:12:33;;;;;;;0.60;0.60;;;;;;;;;;5061758;28;20466;-73
2022/01/25 12:15:11;;;;;;;0.63;0.60;;;;;;;;;;5047106;28;20207;-73
2022/01/25 12:17:40;;;;;;;0.60;0.60;;;;;;;;;;5052393;28;20535;-72
2022/01/25 12:20:17;;;;;;;0.60;0.60;;;;;;;;;;5051962;28;20420;-73
2022/01/25 12:23:03;;;;;;;0.60;0.60;;;;;;;;;;5055247;28;20505;-73
2022/01/25 12:25:47;;;;;;;0.70;0.60;;;;;;;;;;5039765;28;20452;-73
2022/01/25 12:28:37;;;;;;;0.60;0.60;;;;;;;;;;5041784;28;21077;-73
2022/01/25 12:31:13;;;;;;;1.93;1.23;;;;;;;;;;5058445;28;20443;-74
2022/01/25 12:33:44;;;;;;;0.60;0.60;;;;;;;;;;5059306;28;20455;-74
2022/01/25 12:36:11;;;;;;;0.60;0.60;;;;;;;;;;5039392;28;20534;-74
2022/01/25 12:38:42;;;;;;;0.70;0.60;;;;;;;;;;5057086;28;20822;-74
2022/01/25 12:41:15;;;;;;;0.60;0.60;;;;;;;;;;5059338;28;20434;-73
2022/01/25 12:43:45;;;;;;;0.70;0.60;;;;;;;;;;5074959;28;20965;-72
2022/01/25 12:46:15;;;;;;;0.80;0.80;;;;;;;;;;5075525;28;20463;-73
2022/01/25 12:48:48;;;;;;;0.60;0.60;;;;;;;;;;5075443;28;20798;-73
2022/01/25 12:51:26;;;;;;;0.60;0.60;;;;;;;;;;5059551;28;20496;-73
2022/01/25 12:53:55;;;;;;;0.60;0.60;;;;;;;;;;5075264;28;21010;-73
2022/01/25 12:56:24;;;;;;;0.60;0.60;;;;;;;;;;5074897;28;20431;-73
2022/01/25 12:58:52;;;;;;;0.97;0.97;;;;;;;;;;5058536;28;20476;-73
2022/01/25 13:01:22;;;;;;;0.60;0.60;;;;;;;;;;5058498;28;20447;-73
2022/01/25 13:03:50;;;;;;;0.60;0.60;;;;;;;;;;5075319;28;20481;-73
2022/01/25 13:06:19;;;;;;;0.60;0.60;;;;;;;;;;5075137;28;20497;-74
2022/01/25 13:08:54;;;;;;;0.70;0.70;;;;;;;;;;5076310;28;20419;-73
2022/01/25 13:11:29;;;;;;;0.60;0.60;;;;;;;;;;5074436;28;20434;-74
2022/01/25 13:14:04;;;;;;;0.70;0.60;;;;;;;;;;5076255;28;20481;-74
2022/01/25 13:16:37;;;;;;;0.60;0.60;;;;;;;;;;5042977;28;20431;-73
2022/01/25 13:19:06;;;;;;;0.60;0.60;;;;;;;;;;5058700;28;20438;-73
2022/01/25 13:21:37;;;;;;;0.63;0.60;;;;;;;;;;5075028;28;20459;-74
2022/01/25 13:24:29;;;;;;;0.67;0.60;;;;;;;;;;5060597;28;20513;-74
2022/01/25 13:26:59;;;;;;;0.60;0.60;;;;;;;;;;5074590;28;20497;-73
2022/01/25 13:32:20;;;;;;;0.60;0.60;;;;;;;;;;5074035;28;20443;-73
2022/01/25 13:35:04;;;;;;;0.70;0.70;;;;;;;;;;5074683;28;20454;-73
2022/01/25 13:37:32;;;;;;;0.60;0.57;;;;;;;;;;5074374;28;20536;-73
2022/01/25 13:40:02;;;;;;;0.60;0.60;;;;;;;;;;5062632;28;20424;-73
2022/01/25 13:42:57;;;;;;;0.60;0.60;;;;;;;;;;5069758;28;20465;-72
2022/01/25 13:45:44;;;;;;;0.60;0.60;;;;;;;;;;5075668;28;20420;-73
2022/01/25 13:48:19;;;;;;;0.60;0.60;;;;;;;;;;5074219;28;20443;-73
2022/01/25 13:50:51;;;;;;;0.90;0.90;;;;;;;;;;5073766;28;20510;-73
2022/01/25 13:53:19;;;;;;;0.60;0.50;;;;;;;;;;5070892;28;20543;-73
2022/01/25 13:55:48;;;;;;;0.60;0.60;;;;;;;;;;5071068;28;20467;-74
2022/01/25 13:58:19;;;;;;;0.60;0.50;;;;;;;;;;5046365;28;20835;-72
2022/01/25 14:00:47;;;;;;;0.60;0.60;;;;;;;;;;5053877;28;20464;-74
2022/01/25 14:03:16;;;;;;;2.70;0.90;;;;;;;;;;5040338;28;20427;-73
2022/01/25 14:05:43;;;;;;;0.60;0.60;;;;;;;;;;5064067;28;20519;-73
2022/01/25 14:08:11;;;;;;;1.67;1.53;;;;;;;;;;5062507;28;21003;-73
2022/01/25 14:10:44;;;;;;;0.60;0.60;;;;;;;;;;5046737;28;20452;-74
2022/01/25 14:21:54;;;;;;;;;;;;;;;;;;;;;
2022/01/25 14:24:07;;;;;;;0.67;0.60;;;;;;;;;;5053634;28;20243;-72
2022/01/25 14:26:35;;;;;;;1.23;1.13;;;;;;;;;;5064686;28;20484;-72
2022/01/25 14:29:28;;;;;;;0.87;0.87;;;;;;;;;;5050630;28;20890;-73
2022/01/25 14:32:02;;;;;;;0.60;0.50;;;;;;;;;;5071029;28;20465;-72
2022/01/25 14:34:31;;;;;;;0.60;0.60;;;;;;;;;;5073118;28;20460;-74
2022/01/25 14:36:58;;;;;;;0.70;0.70;;;;;;;;;;5055703;28;20471;-73
2022/01/25 14:39:26;;;;;;;0.90;0.90;;;;;;;;;;5057095;28;20453;-73
2022/01/25 14:41:56;;;;;;;0.60;0.60;;;;;;;;;;5071691;28;20538;-73
2022/01/25 14:44:24;;;;;;;0.63;0.60;;;;;;;;;;5035760;28;20542;-73
2022/01/25 14:46:53;;;;;;;1.17;1.00;;;;;;;;;;5052307;28;20447;-73
2022/01/25 14:49:25;;;;;;;0.70;0.60;;;;;;;;;;5036308;28;20994;-73
2022/01/25 14:51:55;;;;;;;0.70;0.60;;;;;;;;;;5053609;28;20213;-72
2022/01/25 14:54:22;;;;;;;1.00;1.00;;;;;;;;;;5053218;28;20945;-73
2022/01/25 14:56:53;;;;;;;0.67;0.60;;;;;;;;;;5060816;28;20462;-73
2022/01/25 14:59:23;;;;;;;0.60;0.60;;;;;;;;;;5058643;28;20790;-74
2022/01/25 15:01:57;;;;;;;0.60;0.60;;;;;;;;;;5053183;28;20211;-72
2022/01/25 15:04:25;;;;;;;0.60;0.60;;;;;;;;;;5047106;28;21275;-72
2022/01/25 15:06:54;;;;;;;0.60;0.50;;;;;;;;;;5055923;28;20459;-72
2022/01/25 15:09:22;;;;;;;0.60;0.60;;;;;;;;;;5072856;28;20880;-73
2022/01/25 15:11:52;;;;;;;0.60;0.60;;;;;;;;;;5072563;28;20451;-73
2022/01/25 15:14:22;;;;;;;1.00;0.70;;;;;;;;;;5072241;28;20455;-73
2022/01/25 15:16:51;;;;;;;1.00;1.00;;;;;;;;;;5073060;28;20419;-73
2022/01/25 15:19:19;;;;;;;0.60;0.60;;;;;;;;;;5071637;28;20554;-74
2022/01/25 15:21:51;;;;;;;0.60;0.60;;;;;;;;;;5072699;28;20450;-73
2022/01/25 15:24:21;;;;;;;0.60;0.60;;;;;;;;;;5072537;28;20442;-74
2022/01/25 15:26:53;;;;;;;0.70;0.60;;;;;;;;;;5072346;28;20478;-73
2022/01/25 15:29:23;;;;;;;0.70;0.60;;;;;;;;;;5055366;28;20189;-73
2022/01/25 15:31:51;;;;;;;0.60;0.60;;;;;;;;;;5052607;28;20204;-73
2022/01/25 15:34:20;;;;;;;0.60;0.60;;;;;;;;;;5055118;28;20209;-73
2022/01/25 15:36:49;;;;;;;0.60;0.57;;;;;;;;;;5035930;28;20263;-73
2022/01/25 15:39:20;;;;;;;0.70;0.60;;;;;;;;;;5052622;28;20948;-73
2022/01/25 15:41:51;;;;;;;0.60;0.60;;;;;;;;;;5051689;28;20193;-73
2022/01/25 15:44:20;;;;;;;0.60;0.60;;;;;;;;;;5068576;28;20262;-74
2022/01/25 15:49:18;;;;;;;0.70;0.60;;;;;;;;;;5052062;28;20217;-73
2022/01/25 15:51:48;;;;;;;0.60;0.60;;;;;;;;;;5053290;28;20297;-73
2022/01/25 15:54:15;;;;;;;0.70;0.60;;;;;;;;;;5060307;28;20251;-72
2022/01/25 15:57:09;;;;;;;0.70;0.70;;;;;;;;;;5063332;28;20780;-73
2022/01/25 15:59:37;;;;;;;0.70;0.60;;;;;;;;;;5061598;28;20273;-73
2022/01/25 16:02:14;;;;;;;0.70;0.60;;;;;;;;;;5061405;28;20201;-73
2022/01/25 16:04:44;;;;;;;0.60;0.60;;;;;;;;;;5048200;28;20197;-73
2022/01/25 16:07:23;;;;;;;0.70;0.70;;;;;;;;;;5057107;28;20227;-73
2022/01/25 16:09:57;;;;;;;0.70;0.70;;;;;;;;;;5042097;28;20195;-72
2022/01/25 16:12:26;;;;;;;0.70;0.63;;;;;;;;;;5069798;28;20191;-73
2022/01/25 16:14:55;;;;;;;0.70;0.60;;;;;;;;;;5061914;28;20217;-73
2022/01/25 16:17:23;;;;;;;0.60;0.57;;;;;;;;;;5077716;28;20187;-72
2022/01/25 16:19:50;;;;;;;0.73;0.73;;;;;;;;;;5078755;28;20196;-72
2022/01/25 16:22:17;;;;;;;1.10;1.02;;;;;;;;;;5078257;28;20545;-73
2022/01/25 16:24:44;;;;;;;0.60;0.50;;;;;;;;;;5077860;28;20727;-72
2022/01/25 16:27:12;;;;;;;0.60;0.60;;;;;;;;;;5076333;28;20447;-72
2022/01/25 16:29:41;;;;;;;0.70;0.60;;;;;;;;;;5078786;28;20189;-72
2022/01/25 16:32:12;;;;;;;0.60;0.60;;;;;;;;;;5074778;28;20220;-72
2022/01/25 16:34:39;;;;;;;0.70;0.60;;;;;;;;;;5058358;28;20206;-73
2022/01/25 16:37:07;;;;;;;2.80;1.65;;;;;;;;;;5075494;28;20217;-73
2022/01/25 16:39:35;;;;;;;0.60;0.60;;;;;;;;;;5075302;28;20227;-73
2022/01/25 16:42:03;;;;;;;1.17;1.08;;;;;;;;;;5058536;28;20601;-72
2022/01/25 16:44:59;;;;;;;0.70;0.60;;;;;;;;;;5058539;28;20268;-73
2022/01/25 16:47:31;;;;;;;0.60;0.60;;;;;;;;;;5066688;28;20536;-73
2022/01/25 16:50:02;;;;;;;0.70;0.60;;;;;;;;;;5078119;28;20200;-73